LFSO 181630Z AUTO VRB03KT 9999 ///CB 23/17 Q1013

ElémentsDécodage
LFSO Station météo située sur l'aérodrome de NANCY Ochey
181630Z émis le 18 du mois à 16h30 UTC
AUTO Bulletin édité par un automate
VRB03KT vent de direction variable, 03 noeuds
9999 visibilité horizontale supérieure à 10 Km
///CB élement non décodé
23/17 température 23°C, point de rosée 17°C
 soit une humidité relative de 69%
Q1013 la pression au niveau de la mer (QNH) est de 1013 hPa